Time;durP1;ratioP1;P1;durP2;ratioP2;P2;SDS_P1;SDS_P2;PMS_P1;PMS_P2;Temp;Humidity;BMP_temperature;BMP_pressure;BME280_temperature;BME280_humidity;BME280_pressure;Samples;Min_cycle;Max_cycle;Signal;HPM_P1;HPM_P2
2023/06/06 00:02:22;;;;;;;4.97;4.47;;;15.80;99.90;;;;;;5053949;28;20212;-80
2023/06/06 00:04:49;;;;;;;5.40;4.77;;;15.80;99.90;;;;;;5056689;28;20177;-78
2023/06/06 00:07:19;;;;;;;5.67;5.00;;;15.70;99.90;;;;;;5055004;28;20180;-78
2023/06/06 00:09:45;;;;;;;5.23;4.83;;;15.60;99.90;;;;;;5052196;28;20176;-81
2023/06/06 00:12:14;;;;;;;5.03;4.63;;;15.60;99.90;;;;;;5051407;28;20193;-79
2023/06/06 00:14:41;;;;;;;5.60;5.20;;;15.70;99.90;;;;;;5051586;28;20176;-77
2023/06/06 00:17:08;;;;;;;5.73;5.23;;;15.60;99.90;;;;;;5051583;28;20183;-78
2023/06/06 00:19:35;;;;;;;5.07;4.67;;;15.60;99.90;;;;;;5052754;28;20188;-78
2023/06/06 00:22:02;;;;;;;5.20;4.80;;;15.60;99.90;;;;;;5054017;28;20193;-79
2023/06/06 00:24:29;;;;;;;5.10;4.60;;;15.70;99.90;;;;;;5052882;28;20171;-78
2023/06/06 00:26:55;;;;;;;5.73;5.10;;;15.60;99.90;;;;;;5051561;28;20625;-78
2023/06/06 00:29:21;;;;;;;5.00;4.60;;;15.60;99.90;;;;;;5051797;28;20195;-79
2023/06/06 00:31:46;;;;;;;5.30;4.90;;;15.60;99.90;;;;;;5036916;28;20187;-79
2023/06/06 00:34:12;;;;;;;5.00;4.53;;;15.60;99.90;;;;;;5052431;28;20663;-77
2023/06/06 00:36:38;;;;;;;4.93;4.50;;;15.60;99.90;;;;;;5051447;28;20253;-78
2023/06/06 00:39:03;;;;;;;5.03;4.53;;;15.60;99.90;;;;;;5034040;28;20180;-78
2023/06/06 00:41:29;;;;;;;5.13;4.73;;;15.60;99.90;;;;;;5051982;28;20180;-79
2023/06/06 00:43:55;;;;;;;4.77;4.37;;;15.60;99.90;;;;;;5053933;28;20227;-80
2023/06/06 00:46:21;;;;;;;4.70;4.30;;;15.60;99.90;;;;;;5052473;28;20168;-78
2023/06/06 00:48:47;;;;;;;4.67;4.37;;;15.60;99.90;;;;;;5052060;28;20648;-77
2023/06/06 00:51:13;;;;;;;5.47;4.70;;;15.60;99.90;;;;;;5030804;28;20220;-79
2023/06/06 00:53:39;;;;;;;5.17;4.77;;;15.60;99.90;;;;;;5031729;28;20736;-78
2023/06/06 00:56:06;;;;;;;4.67;4.37;;;15.60;99.90;;;;;;5030715;28;20742;-79
2023/06/06 00:58:32;;;;;;;4.93;4.53;;;15.60;99.90;;;;;;5031834;28;20203;-79
2023/06/06 01:00:58;;;;;;;5.80;5.30;;;15.60;99.90;;;;;;5032251;28;20692;-77
2023/06/06 01:03:24;;;;;;;5.20;4.80;;;15.60;99.90;;;;;;5034956;28;20270;-78
2023/06/06 01:05:53;;;;;;;6.03;5.43;;;15.60;99.90;;;;;;5035370;28;20259;-79
2023/06/06 01:08:20;;;;;;;6.83;5.33;;;15.60;99.90;;;;;;5035304;28;20195;-78
2023/06/06 01:10:46;;;;;;;5.93;5.33;;;15.60;99.90;;;;;;5035090;28;20177;-79
2023/06/06 01:13:38;;;;;;;5.07;4.67;;;15.60;99.90;;;;;;5034659;28;20600;-80
2023/06/06 01:16:15;;;;;;;6.50;4.60;;;15.60;99.90;;;;;;5034743;28;20169;-78
2023/06/06 01:18:42;;;;;;;4.83;4.50;;;15.60;99.90;;;;;;5034788;28;20187;-80
2023/06/06 01:21:08;;;;;;;5.00;4.60;;;15.70;99.90;;;;;;5034981;28;20180;-77
2023/06/06 01:23:36;;;;;;;5.80;4.93;;;15.60;99.90;;;;;;5034406;28;20194;-78
2023/06/06 01:26:04;;;;;;;5.13;4.73;;;15.60;99.90;;;;;;5034474;28;20667;-80
2023/06/06 01:28:31;;;;;;;5.40;4.90;;;15.60;99.90;;;;;;5033341;28;20267;-79
2023/06/06 01:30:57;;;;;;;7.77;5.70;;;15.60;99.90;;;;;;5033374;28;20176;-79
2023/06/06 01:33:29;;;;;;;5.10;4.70;;;15.60;99.90;;;;;;5034316;28;20212;-78
2023/06/06 01:36:07;;;;;;;5.57;5.07;;;15.70;99.90;;;;;;5034646;28;20183;-79
2023/06/06 01:38:40;;;;;;;5.93;5.40;;;15.60;99.90;;;;;;5034762;28;20529;-79
2023/06/06 01:41:08;;;;;;;5.67;5.13;;;15.60;99.90;;;;;;5035032;28;20169;-79
2023/06/06 01:43:36;;;;;;;5.27;4.87;;;15.60;99.90;;;;;;5034602;28;20564;-79
2023/06/06 01:46:03;;;;;;;5.10;4.60;;;15.60;99.90;;;;;;5032868;28;20183;-79
2023/06/06 01:48:29;;;;;;;5.53;5.13;;;15.60;99.90;;;;;;5033382;28;20206;-79
2023/06/06 01:50:55;;;;;;;5.63;5.00;;;15.60;99.90;;;;;;5033079;28;20230;-79
2023/06/06 01:53:21;;;;;;;4.50;4.20;;;15.70;99.90;;;;;;5034256;28;20217;-79
2023/06/06 01:55:48;;;;;;;4.50;4.20;;;15.60;99.90;;;;;;5032792;28;20548;-78
2023/06/06 01:58:16;;;;;;;4.80;4.40;;;15.60;99.90;;;;;;5035400;28;20184;-78
2023/06/06 02:00:42;;;;;;;4.50;4.20;;;15.60;99.90;;;;;;5034858;28;20172;-78
2023/06/06 02:03:08;;;;;;;4.63;4.30;;;15.60;99.90;;;;;;5052176;28;20187;-77
2023/06/06 02:05:33;;;;;;;4.77;4.47;;;15.60;99.90;;;;;;5058071;28;20177;-78
2023/06/06 02:07:59;;;;;;;4.27;3.97;;;15.60;99.90;;;;;;5056825;28;20176;-80
2023/06/06 02:10:25;;;;;;;4.60;4.30;;;15.60;99.90;;;;;;5059203;28;20176;-79
2023/06/06 02:12:51;;;;;;;4.47;4.17;;;15.60;99.90;;;;;;5058622;28;20208;-77
2023/06/06 02:15:17;;;;;;;4.70;4.40;;;15.60;99.90;;;;;;5037027;28;20179;-78
2023/06/06 02:17:42;;;;;;;4.67;4.37;;;15.60;99.90;;;;;;5035698;28;20196;-79
2023/06/06 02:20:10;;;;;;;4.60;4.20;;;15.50;99.90;;;;;;5037459;28;20577;-78
2023/06/06 02:22:37;;;;;;;4.40;4.10;;;15.50;99.90;;;;;;5040263;28;20689;-78
2023/06/06 02:25:03;;;;;;;4.70;4.30;;;15.50;99.90;;;;;;5034233;28;20650;-79
2023/06/06 02:27:33;;;;;;;4.57;4.20;;;15.50;99.90;;;;;;5035137;28;20530;-79
2023/06/06 02:29:58;;;;;;;4.60;4.30;;;15.60;99.90;;;;;;5032738;28;20169;-78
2023/06/06 02:32:24;;;;;;;5.20;4.80;;;15.60;99.90;;;;;;5034129;28;20733;-77
2023/06/06 02:34:50;;;;;;;5.17;4.77;;;15.50;99.90;;;;;;5033549;28;20251;-78
2023/06/06 02:37:16;;;;;;;5.17;4.77;;;15.60;99.90;;;;;;5032163;28;20539;-79
2023/06/06 02:39:42;;;;;;;5.03;4.63;;;15.60;99.90;;;;;;5033615;28;20178;-80
2023/06/06 02:42:08;;;;;;;5.03;4.70;;;15.60;99.90;;;;;;5033707;28;20203;-79
2023/06/06 02:44:34;;;;;;;5.73;5.23;;;15.60;99.90;;;;;;5032184;28;20173;-78
2023/06/06 02:47:00;;;;;;;6.03;4.83;;;15.60;99.90;;;;;;5033469;28;20183;-80
2023/06/06 02:49:27;;;;;;;4.67;4.27;;;15.60;99.90;;;;;;5033652;28;20185;-77
2023/06/06 02:51:53;;;;;;;5.23;4.83;;;15.60;99.90;;;;;;5052543;28;20760;-78
2023/06/06 02:54:19;;;;;;;5.47;5.00;;;15.60;99.90;;;;;;5053171;28;20213;-78
2023/06/06 02:56:45;;;;;;;4.57;4.27;;;15.60;99.90;;;;;;5052856;28;20177;-79
2023/06/06 02:59:10;;;;;;;4.80;4.47;;;15.60;99.90;;;;;;5052848;28;20599;-80
2023/06/06 03:01:44;;;;;;;4.97;4.67;;;15.60;99.90;;;;;;5052922;28;20598;-79
2023/06/06 03:04:11;;;;;;;5.43;4.90;;;15.60;99.90;;;;;;5052973;28;20171;-78
2023/06/06 03:06:39;;;;;;;4.80;4.37;;;15.50;99.90;;;;;;5034722;28;20183;-78
2023/06/06 03:09:05;;;;;;;4.93;4.53;;;15.40;99.90;;;;;;5052699;28;20172;-79
2023/06/06 03:11:31;;;;;;;4.90;4.50;;;15.40;99.90;;;;;;5052549;28;20662;-78
2023/06/06 03:13:58;;;;;;;4.87;4.50;;;15.50;99.90;;;;;;5052471;28;20242;-80
2023/06/06 03:16:26;;;;;;;5.20;4.67;;;15.40;99.90;;;;;;5052299;28;20191;-79
2023/06/06 03:18:55;;;;;;;4.70;4.30;;;15.50;99.90;;;;;;5052714;28;20171;-79
2023/06/06 03:21:21;;;;;;;4.60;4.30;;;15.50;99.90;;;;;;5052477;28;20202;-78
2023/06/06 03:23:47;;;;;;;4.50;4.20;;;15.60;99.90;;;;;;5052186;28;20574;-81
2023/06/06 03:26:13;;;;;;;4.70;4.30;;;15.50;99.90;;;;;;5051909;28;20325;-80
2023/06/06 03:28:40;;;;;;;5.37;4.33;;;15.50;99.90;;;;;;5052302;28;20250;-80
2023/06/06 03:31:07;;;;;;;4.97;4.30;;;15.50;99.90;;;;;;5052202;28;20265;-79
2023/06/06 03:33:35;;;;;;;5.07;4.60;;;15.50;99.90;;;;;;5053253;28;20295;-81
2023/06/06 03:36:01;;;;;;;5.20;4.80;;;15.50;99.90;;;;;;5052588;28;20251;-79
2023/06/06 03:38:27;;;;;;;5.23;4.83;;;15.50;99.90;;;;;;5053165;28;20232;-78
2023/06/06 03:40:53;;;;;;;5.40;4.73;;;13.20;99.90;;;;;;5052756;28;20554;-79
2023/06/06 03:43:19;;;;;;;5.37;4.87;;;15.50;99.90;;;;;;5058443;28;20171;-79
2023/06/06 03:45:45;;;;;;;4.97;4.47;;;15.50;99.90;;;;;;5055837;28;20616;-79
2023/06/06 03:48:12;;;;;;;5.00;4.67;;;15.50;99.90;;;;;;5052756;28;20178;-78
2023/06/06 03:50:38;;;;;;;5.47;4.90;;;15.50;99.90;;;;;;5052120;28;20308;-77
2023/06/06 03:53:04;;;;;;;5.50;5.00;;;15.50;99.90;;;;;;5052754;28;20196;-78
2023/06/06 03:55:34;;;;;;;5.10;4.70;;;15.50;99.90;;;;;;5053285;28;20164;-78
2023/06/06 03:58:00;;;;;;;4.90;4.50;;;15.60;99.90;;;;;;5052819;28;20202;-80
2023/06/06 04:00:26;;;;;;;5.70;5.00;;;15.60;99.90;;;;;;5052257;28;20164;-80
2023/06/06 04:02:52;;;;;;;5.27;4.80;;;15.70;99.90;;;;;;5052285;28;20202;-78
2023/06/06 04:05:18;;;;;;;6.37;4.97;;;15.70;99.90;;;;;;5052097;28;20185;-79
2023/06/06 04:07:44;;;;;;;5.33;4.90;;;15.80;99.90;;;;;;5058757;28;20171;-78
2023/06/06 04:10:11;;;;;;;5.83;5.33;;;15.40;99.90;;;;;;5058033;28;20254;-81
2023/06/06 04:12:38;;;;;;;5.03;4.63;;;15.60;99.90;;;;;;5053881;28;20261;-78
2023/06/06 04:15:04;;;;;;;6.17;4.47;;;15.70;99.90;;;;;;5052486;28;20210;-79
2023/06/06 04:17:31;;;;;;;4.67;4.27;;;15.70;99.90;;;;;;5052173;28;20175;-77
2023/06/06 04:19:57;;;;;;;5.13;4.73;;;15.70;99.90;;;;;;5054072;28;20229;-78
2023/06/06 04:22:23;;;;;;;5.83;5.33;;;15.80;99.90;;;;;;5054271;28;20199;-78
2023/06/06 04:24:49;;;;;;;5.77;5.27;;;15.80;99.90;;;;;;5051956;28;20185;-78
2023/06/06 04:27:16;;;;;;;6.67;6.03;;;15.80;99.90;;;;;;5051230;28;20220;-79
2023/06/06 04:29:42;;;;;;;6.17;5.60;;;15.90;99.90;;;;;;5051294;28;20191;-78
2023/06/06 04:32:08;;;;;;;6.57;5.87;;;15.80;99.90;;;;;;5051401;28;20176;-78
2023/06/06 04:34:39;;;;;;;6.53;5.93;;;15.80;99.90;;;;;;5051332;28;20228;-77
2023/06/06 04:37:06;;;;;;;7.03;6.43;;;15.80;99.90;;;;;;5053804;28;20168;-78
2023/06/06 04:39:36;;;;;;;8.17;6.93;;;15.80;99.90;;;;;;5055549;28;20627;-78
2023/06/06 04:42:05;;;;;;;7.10;6.40;;;15.80;99.90;;;;;;5054921;28;20650;-79
2023/06/06 04:44:42;;;;;;;8.90;7.20;;;16.00;99.90;;;;;;5055762;28;20292;-79
2023/06/06 04:47:12;;;;;;;7.43;6.63;;;16.00;99.90;;;;;;5055340;28;20172;-79
2023/06/06 04:49:39;;;;;;;7.03;6.13;;;16.10;99.90;;;;;;5055371;28;20188;-78
2023/06/06 04:52:06;;;;;;;7.30;6.50;;;16.10;99.90;;;;;;5055416;28;20230;-80
2023/06/06 04:54:33;;;;;;;8.40;6.80;;;16.20;99.90;;;;;;5037089;28;20191;-78
2023/06/06 04:57:00;;;;;;;7.13;6.53;;;16.20;99.90;;;;;;5054539;28;20628;-78
2023/06/06 04:59:27;;;;;;;8.00;7.17;;;16.20;99.90;;;;;;5036985;28;20175;-79
2023/06/06 05:01:53;;;;;;;8.03;6.97;;;16.10;99.90;;;;;;5055022;28;20160;-78
2023/06/06 05:04:19;;;;;;;7.80;7.03;;;16.20;99.90;;;;;;5055448;28;20207;-81
2023/06/06 05:06:46;;;;;;;9.90;6.77;;;16.30;99.90;;;;;;5054699;28;20200;-78
2023/06/06 05:09:12;;;;;;;7.03;6.33;;;16.30;99.90;;;;;;5055528;28;20654;-80
2023/06/06 05:11:38;;;;;;;8.90;6.77;;;16.30;99.90;;;;;;5055769;28;20172;-79
2023/06/06 05:14:04;;;;;;;8.33;6.77;;;16.20;99.90;;;;;;5054754;28;20231;-77
2023/06/06 05:16:30;;;;;;;7.10;6.50;;;16.20;99.90;;;;;;5054660;28;20191;-78
2023/06/06 05:18:55;;;;;;;7.30;6.00;;;16.30;99.90;;;;;;5055650;28;20268;-78
2023/06/06 05:21:21;;;;;;;7.80;6.77;;;16.40;99.90;;;;;;5021746;28;20651;-80
2023/06/06 05:23:47;;;;;;;7.60;6.90;;;16.40;99.90;;;;;;5055170;28;20620;-78
2023/06/06 05:26:20;;;;;;;7.70;6.27;;;16.40;99.90;;;;;;5056300;28;20177;-79
2023/06/06 05:28:45;;;;;;;7.23;6.17;;;16.50;99.90;;;;;;5037135;28;20685;-78
2023/06/06 05:31:16;;;;;;;7.00;6.37;;;16.50;99.90;;;;;;5038198;28;20188;-78
2023/06/06 05:33:42;;;;;;;7.07;6.37;;;16.50;99.90;;;;;;5056905;28;20350;-79
2023/06/06 05:36:08;;;;;;;5.90;5.40;;;16.50;99.90;;;;;;5070288;28;20181;-80
2023/06/06 05:38:34;;;;;;;7.17;6.57;;;16.50;99.90;;;;;;5057809;28;20185;-78
2023/06/06 05:40:59;;;;;;;6.77;5.93;;;16.50;99.90;;;;;;5055294;28;20174;-78
2023/06/06 05:43:26;;;;;;;6.70;6.10;;;16.50;99.90;;;;;;5049917;28;20167;-79
2023/06/06 05:45:51;;;;;;;6.67;5.90;;;16.50;99.90;;;;;;5054512;28;20666;-79
2023/06/06 05:48:17;;;;;;;5.47;5.03;;;16.60;99.90;;;;;;5054626;28;20176;-78
2023/06/06 05:50:43;;;;;;;5.83;5.33;;;16.60;99.90;;;;;;5055358;28;20220;-78
2023/06/06 05:53:09;;;;;;;6.83;5.00;;;16.60;99.90;;;;;;5057771;28;20202;-78
2023/06/06 05:55:35;;;;;;;4.93;4.53;;;16.70;99.90;;;;;;5056737;28;20513;-79
2023/06/06 05:58:03;;;;;;;4.90;4.50;;;16.80;99.90;;;;;;5036572;28;20186;-78
2023/06/06 06:00:31;;;;;;;5.20;4.80;;;16.80;99.90;;;;;;5054118;28;20255;-79
2023/06/06 06:02:59;;;;;;;5.00;4.60;;;16.90;99.90;;;;;;5054623;28;20548;-77
2023/06/06 06:05:29;;;;;;;5.00;4.50;;;17.10;99.90;;;;;;5054830;28;20196;-81
2023/06/06 06:07:59;;;;;;;5.50;5.10;;;17.10;99.90;;;;;;5055633;28;20180;-79
2023/06/06 06:10:28;;;;;;;4.40;4.10;;;17.30;99.90;;;;;;5055897;28;20247;-79
2023/06/06 06:12:55;;;;;;;4.50;4.10;;;17.60;99.90;;;;;;5054862;28;20202;-80
2023/06/06 06:15:21;;;;;;;5.00;4.60;;;17.70;99.90;;;;;;5054380;28;20580;-79
2023/06/06 06:17:48;;;;;;;4.57;4.27;;;17.80;99.90;;;;;;5055172;28;20226;-79
2023/06/06 06:20:15;;;;;;;4.73;4.30;;;18.10;99.90;;;;;;5057100;28;20168;-78
2023/06/06 06:22:42;;;;;;;4.90;4.50;;;18.10;99.90;;;;;;5056810;28;20218;-79
2023/06/06 06:25:08;;;;;;;4.93;4.43;;;18.00;99.90;;;;;;5054182;28;20196;-78
2023/06/06 06:27:37;;;;;;;4.83;4.53;;;18.00;99.90;;;;;;5053976;28;20663;-79
2023/06/06 06:30:04;;;;;;;4.70;4.40;;;18.10;99.90;;;;;;5054000;28;20259;-79
2023/06/06 06:32:33;;;;;;;4.77;4.37;;;18.10;99.90;;;;;;5053367;28;20225;-79
2023/06/06 06:35:00;;;;;;;4.93;4.53;;;18.20;99.90;;;;;;5053472;28;20218;-77
2023/06/06 06:37:26;;;;;;;5.10;4.70;;;18.20;99.90;;;;;;5053582;28;20261;-78
2023/06/06 06:39:52;;;;;;;4.63;4.33;;;18.40;99.90;;;;;;5053282;28;20171;-78
2023/06/06 06:42:17;;;;;;;4.87;4.40;;;18.60;99.90;;;;;;5053232;28;20168;-78
2023/06/06 06:44:43;;;;;;;4.87;4.43;;;18.70;99.90;;;;;;5053220;28;20176;-77
2023/06/06 06:47:09;;;;;;;4.83;4.53;;;18.90;99.90;;;;;;5053144;28;20179;-78
2023/06/06 06:49:40;;;;;;;5.10;4.70;;;19.10;99.90;;;;;;5052863;28;20571;-77
2023/06/06 06:52:07;;;;;;;5.30;4.87;;;19.20;99.90;;;;;;5053069;28;20164;-79
2023/06/06 06:54:35;;;;;;;5.23;4.83;;;19.30;99.90;;;;;;5053166;28;20211;-79
2023/06/06 06:57:02;;;;;;;5.10;4.60;;;19.30;99.90;;;;;;5054966;28;20809;-78
2023/06/06 06:59:28;;;;;;;5.43;4.70;;;19.50;99.90;;;;;;5053600;28;20172;-78
2023/06/06 07:01:54;;;;;;;4.50;4.20;;;19.70;99.90;;;;;;5052918;28;20179;-80
2023/06/06 07:04:21;;;;;;;5.00;4.63;;;19.80;99.90;;;;;;5053631;28;20183;-77
2023/06/06 07:06:47;;;;;;;4.80;4.40;;;19.40;99.90;;;;;;5053134;28;20514;-78
2023/06/06 07:09:13;;;;;;;5.13;4.73;;;19.50;99.90;;;;;;5035827;28;20190;-79
2023/06/06 07:11:39;;;;;;;4.70;4.33;;;19.50;99.90;;;;;;5053410;28;20179;-78
2023/06/06 07:14:05;;;;;;;4.23;3.90;;;19.50;99.90;;;;;;5052701;28;20253;-78
2023/06/06 07:16:34;;;;;;;4.20;3.90;;;19.50;99.90;;;;;;5052760;28;20195;-79
2023/06/06 07:18:59;;;;;;;3.80;3.60;;;19.70;99.90;;;;;;5053043;28;20179;-78
2023/06/06 07:21:25;;;;;;;4.30;4.00;;;19.90;99.90;;;;;;5053044;28;20164;-79
2023/06/06 07:23:52;;;;;;;3.40;3.20;;;20.20;99.90;;;;;;5053092;28;20639;-77
2023/06/06 07:26:19;;;;;;;3.73;3.53;;;20.50;99.90;;;;;;5056363;28;20196;-79
2023/06/06 07:28:46;;;;;;;4.37;3.53;;;20.70;99.90;;;;;;5064341;28;20225;-78
2023/06/06 07:31:16;;;;;;;3.67;3.47;;;20.70;99.90;;;;;;5058551;28;20206;-77
2023/06/06 07:33:42;;;;;;;3.90;3.60;;;20.60;99.90;;;;;;5052694;28;20573;-78
2023/06/06 07:36:08;;;;;;;4.10;3.80;;;20.70;99.90;;;;;;5052819;28;20184;-78
2023/06/06 07:38:34;;;;;;;3.80;3.37;;;21.00;99.90;;;;;;5052238;28;20186;-77
2023/06/06 07:41:00;;;;;;;4.20;4.00;;;21.10;99.90;;;;;;5052495;28;20245;-78
2023/06/06 07:43:26;;;;;;;4.33;3.93;;;21.20;99.90;;;;;;5052479;28;20176;-78
2023/06/06 07:45:52;;;;;;;4.30;4.00;;;20.70;99.90;;;;;;5052402;28;20168;-77
2023/06/06 07:48:18;;;;;;;4.23;3.90;;;20.20;99.90;;;;;;5052684;28;20183;-77
2023/06/06 07:50:44;;;;;;;4.30;4.00;;;20.10;99.90;;;;;;5051986;28;20211;-79
2023/06/06 07:53:10;;;;;;;4.90;4.60;;;20.00;99.90;;;;;;5052225;28;20215;-78
2023/06/06 07:55:37;;;;;;;4.37;4.07;;;20.10;99.90;;;;;;5052215;28;20581;-78
2023/06/06 07:58:10;;;;;;;4.20;3.80;;;20.20;99.90;;;;;;5052284;28;20164;-77
2023/06/06 08:00:36;;;;;;;4.33;4.03;;;20.40;99.90;;;;;;5052238;28;20628;-78
2023/06/06 08:03:02;;;;;;;6.50;4.37;;;20.40;99.90;;;;;;5052422;28;20183;-78
2023/06/06 08:05:27;;;;;;;5.43;4.93;;;20.40;99.90;;;;;;5052329;28;20658;-79
2023/06/06 08:07:53;;;;;;;4.93;4.63;;;20.60;99.90;;;;;;5052448;28;20256;-78
2023/06/06 08:10:19;;;;;;;5.03;4.63;;;20.60;99.90;;;;;;5052647;28;20202;-79
2023/06/06 08:12:45;;;;;;;5.10;4.70;;;20.60;99.90;;;;;;5056594;28;20192;-79
2023/06/06 08:15:11;;;;;;;4.80;4.47;;;20.60;99.90;;;;;;5058481;28;20652;-77
2023/06/06 08:17:37;;;;;;;4.83;4.47;;;20.80;99.90;;;;;;5059766;28;20201;-77
2023/06/06 08:20:06;;;;;;;5.07;4.67;;;20.70;99.90;;;;;;5059212;28;20179;-77
2023/06/06 08:22:33;;;;;;;4.80;4.50;;;20.70;99.90;;;;;;5056435;28;20186;-77
2023/06/06 08:25:04;;;;;;;4.63;4.33;;;20.80;99.90;;;;;;5056192;28;20168;-78
2023/06/06 08:27:30;;;;;;;5.13;4.63;;;21.00;99.90;;;;;;5039388;28;20499;-79
2023/06/06 08:29:57;;;;;;;6.07;4.40;;;21.00;99.90;;;;;;5055834;28;20171;-80
2023/06/06 08:32:22;;;;;;;4.60;4.30;;;21.10;99.90;;;;;;5055659;28;20175;-79
2023/06/06 08:34:48;;;;;;;4.73;4.33;;;21.30;99.90;;;;;;5056480;28;20175;-78
2023/06/06 08:37:14;;;;;;;4.50;4.20;;;21.40;99.90;;;;;;5056059;28;20176;-78
2023/06/06 08:39:40;;;;;;;4.63;4.33;;;21.40;99.90;;;;;;5056368;28;20535;-78
2023/06/06 08:42:09;;;;;;;4.60;4.30;;;21.40;99.90;;;;;;5055989;28;20183;-79
2023/06/06 08:44:36;;;;;;;4.60;4.30;;;21.50;99.90;;;;;;5055691;28;20190;-81
2023/06/06 08:47:03;;;;;;;5.40;5.00;;;21.40;99.90;;;;;;5057936;28;20171;-78
2023/06/06 08:49:32;;;;;;;4.90;4.60;;;21.50;99.90;;;;;;5057603;28;20599;-79
2023/06/06 08:51:58;;;;;;;4.83;4.53;;;21.60;99.90;;;;;;5019413;28;20243;-78
2023/06/06 08:54:25;;;;;;;4.70;4.40;;;21.70;99.90;;;;;;5015961;28;20299;-79
2023/06/06 08:56:53;;;;;;;4.30;4.10;;;21.80;99.90;;;;;;5014543;28;20188;-76
2023/06/06 08:59:20;;;;;;;4.67;4.20;;;21.60;99.90;;;;;;5015876;28;20245;-79
2023/06/06 09:01:49;;;;;;;4.23;4.00;;;21.80;99.90;;;;;;5015683;28;20185;-78
2023/06/06 09:04:17;;;;;;;4.10;3.80;;;21.80;99.90;;;;;;5015637;28;20173;-78
2023/06/06 09:06:46;;;;;;;4.23;3.90;;;21.80;99.90;;;;;;5015664;28;20177;-78
2023/06/06 09:09:13;;;;;;;4.70;4.30;;;21.90;99.90;;;;;;5014755;28;20181;-78
2023/06/06 09:11:39;;;;;;;4.90;4.50;;;21.90;99.90;;;;;;5015765;28;20180;-78
2023/06/06 09:14:05;;;;;;;4.40;4.10;;;21.80;99.90;;;;;;5015807;28;20563;-78
2023/06/06 09:16:34;;;;;;;4.47;4.00;;;21.80;99.90;;;;;;5016152;28;20177;-80
2023/06/06 09:19:02;;;;;;;4.60;4.30;;;22.10;99.90;;;;;;5024058;28;20173;-80
2023/06/06 09:21:34;;;;;;;5.30;4.00;;;22.00;99.90;;;;;;5021175;28;20252;-79
2023/06/06 09:24:03;;;;;;;4.50;4.20;;;21.90;99.90;;;;;;5015657;28;20189;-77
2023/06/06 09:26:32;;;;;;;5.00;4.70;;;22.00;99.90;;;;;;5014117;28;20181;-78
2023/06/06 09:29:11;;;;;;;4.47;4.10;;;22.00;99.90;;;;;;5015516;28;20173;-78
2023/06/06 09:31:38;;;;;;;4.80;4.40;;;21.80;99.90;;;;;;5015864;28;20513;-78
2023/06/06 09:34:06;;;;;;;4.07;3.87;;;21.80;99.90;;;;;;5015759;28;20210;-77
2023/06/06 09:36:32;;;;;;;4.77;4.37;;;21.80;99.90;;;;;;5015380;28;20537;-79
2023/06/06 09:39:08;;;;;;;4.13;3.83;;;22.00;99.90;;;;;;5015272;28;20166;-81
2023/06/06 09:41:46;;;;;;;4.20;3.90;;;22.20;99.90;;;;;;5015095;28;20157;-79
2023/06/06 09:44:21;;;;;;;5.03;3.80;;;22.60;99.90;;;;;;5015078;28;20192;-78
2023/06/06 09:47:01;;;;;;;4.30;3.90;;;22.40;99.90;;;;;;5015037;28;20212;-79
2023/06/06 09:49:36;;;;;;;5.50;3.70;;;22.10;99.90;;;;;;5015242;28;20165;-79
2023/06/06 09:52:05;;;;;;;4.20;3.80;;;22.10;99.90;;;;;;5015366;28;20548;-77
2023/06/06 09:54:32;;;;;;;3.70;3.50;;;22.60;99.90;;;;;;5015775;28;20224;-77
2023/06/06 09:56:58;;;;;;;3.60;3.40;;;23.10;99.90;;;;;;5018527;28;20191;-78
2023/06/06 09:59:25;;;;;;;3.90;3.60;;;23.20;99.90;;;;;;5038427;28;20244;-79
2023/06/06 10:02:06;;;;;;;3.33;3.13;;;23.20;99.90;;;;;;5035236;28;20170;-78
2023/06/06 10:04:33;;;;;;;3.65;3.40;;;23.10;99.90;;;;;;5038709;28;20185;-77
2023/06/06 10:07:02;;;;;;;3.57;3.30;;;23.30;99.90;;;;;;5039333;28;20181;-79
2023/06/06 10:09:28;;;;;;;3.35;3.15;;;23.40;99.90;;;;;;5030052;28;20169;-77
2023/06/06 10:11:55;;;;;;;4.68;3.35;;;23.60;99.90;;;;;;5023055;28;20240;-78
2023/06/06 10:14:21;;;;;;;2.95;2.78;;;23.60;99.90;;;;;;5022607;28;20292;-78
2023/06/06 10:16:47;;;;;;;3.00;2.80;;;23.60;99.90;;;;;;5020855;28;20176;-78
2023/06/06 10:19:13;;;;;;;3.08;2.88;;;23.70;99.90;;;;;;5014963;28;20181;-78
2023/06/06 10:21:41;;;;;;;3.13;2.92;;;23.80;99.90;;;;;;5018045;28;20181;-79
2023/06/06 10:24:07;;;;;;;2.83;2.72;;;23.90;99.90;;;;;;5017742;28;20573;-79
2023/06/06 10:26:41;;;;;;;3.40;3.20;;;23.70;99.90;;;;;;5014510;28;20634;-78
2023/06/06 10:29:14;;;;;;;3.30;3.00;;;23.50;99.90;;;;;;5014568;28;20681;-78
2023/06/06 10:31:43;;;;;;;3.47;3.15;;;23.60;99.90;;;;;;5014446;28;20158;-78
2023/06/06 10:34:16;;;;;;;3.22;3.03;;;23.60;99.90;;;;;;5013107;28;20696;-78
2023/06/06 10:36:44;;;;;;;3.58;3.30;;;23.70;99.90;;;;;;5014598;28;20173;-78
2023/06/06 10:39:29;;;;;;;3.17;3.07;;;23.80;99.90;;;;;;5014589;28;20169;-78
2023/06/06 10:42:07;;;;;;;3.60;3.40;;;23.80;99.90;;;;;;5017521;28;20216;-77
2023/06/06 10:44:35;;;;;;;3.22;3.03;;;23.80;99.90;;;;;;5014293;28;20589;-77
2023/06/06 10:47:23;;;;;;;3.35;3.15;;;23.90;99.90;;;;;;5012867;28;20178;-78
2023/06/06 10:50:08;;;;;;;3.45;3.15;;;23.90;99.90;;;;;;5018960;28;20507;-79
2023/06/06 10:53:01;;;;;;;3.13;2.92;;;23.50;99.90;;;;;;5053599;28;20164;-78
2023/06/06 10:55:30;;;;;;;2.88;2.67;;;23.30;99.90;;;;;;5053639;28;20156;-79
2023/06/06 10:58:09;;;;;;;3.00;2.80;;;23.20;99.90;;;;;;5053354;28;20206;-77
2023/06/06 11:00:39;;;;;;;3.03;2.83;;;23.40;99.90;;;;;;5053686;28;20254;-79
2023/06/06 11:03:06;;;;;;;3.33;3.00;;;23.60;99.90;;;;;;5052921;28;20179;-79
2023/06/06 11:05:32;;;;;;;2.88;2.78;;;23.40;99.90;;;;;;5053247;28;20183;-79
2023/06/06 11:08:00;;;;;;;2.65;2.55;;;23.50;99.90;;;;;;5053537;28;20486;-79
2023/06/06 11:10:27;;;;;;;2.50;2.40;;;23.60;99.90;;;;;;5059148;28;20183;-78
2023/06/06 11:12:53;;;;;;;2.40;2.30;;;23.30;99.90;;;;;;5061737;28;20199;-79
2023/06/06 11:15:30;;;;;;;3.00;2.80;;;23.30;99.90;;;;;;5053774;28;20167;-78
2023/06/06 11:18:03;;;;;;;3.13;2.83;;;23.50;99.90;;;;;;5055399;28;20226;-78
2023/06/06 11:20:39;;;;;;;2.15;2.05;;;23.60;99.90;;;;;;5054548;28;20176;-77
2023/06/06 11:23:05;;;;;;;2.58;2.47;;;23.30;99.90;;;;;;5054823;28;20186;-79
2023/06/06 11:25:35;;;;;;;2.80;2.67;;;23.10;99.90;;;;;;5054650;28;20501;-78
2023/06/06 11:28:02;;;;;;;2.50;2.40;;;23.40;99.90;;;;;;5055311;28;20194;-78
2023/06/06 11:30:32;;;;;;;2.38;2.22;;;23.40;99.90;;;;;;5053807;28;20266;-76
2023/06/06 11:33:02;;;;;;;2.70;2.60;;;23.20;99.90;;;;;;5053930;28;20211;-78
2023/06/06 11:35:34;;;;;;;2.30;2.20;;;23.30;99.90;;;;;;5053542;28;20168;-79
2023/06/06 11:37:59;;;;;;;2.75;2.65;;;23.30;99.90;;;;;;5053758;28;20213;-77
2023/06/06 11:40:26;;;;;;;2.17;2.08;;;23.30;99.90;;;;;;5053621;28;20255;-79
2023/06/06 11:42:52;;;;;;;2.50;2.30;;;23.30;99.90;;;;;;5054016;28;20179;-76
2023/06/06 11:45:19;;;;;;;2.50;2.33;;;23.50;99.90;;;;;;5053987;28;20268;-77
2023/06/06 11:47:46;;;;;;;2.50;2.40;;;23.90;99.90;;;;;;5054798;28;20175;-77
2023/06/06 11:50:12;;;;;;;2.40;2.30;;;24.20;99.90;;;;;;5053525;28;20227;-76
2023/06/06 11:52:46;;;;;;;2.45;2.25;;;24.20;99.90;;;;;;5054310;28;20257;-77
2023/06/06 11:55:12;;;;;;;2.58;2.38;;;24.30;99.90;;;;;;5054496;28;20176;-80
2023/06/06 11:57:38;;;;;;;2.50;2.40;;;24.40;99.90;;;;;;5053815;28;20168;-78
2023/06/06 12:00:12;;;;;;;2.50;2.40;;;24.60;99.90;;;;;;5053892;28;20172;-79
2023/06/06 12:02:39;;;;;;;2.33;2.22;;;24.60;99.90;;;;;;5037408;28;20172;-77
2023/06/06 12:05:05;;;;;;;2.47;2.38;;;24.60;99.90;;;;;;5054497;28;20168;-79
2023/06/06 12:07:31;;;;;;;2.35;2.25;;;24.30;99.90;;;;;;5054477;28;20176;-77
2023/06/06 12:10:01;;;;;;;2.38;2.28;;;24.30;99.90;;;;;;5054441;28;20164;-78
2023/06/06 12:12:27;;;;;;;2.45;2.25;;;24.60;99.90;;;;;;5054923;28;20164;-79
2023/06/06 12:14:57;;;;;;;2.50;2.40;;;24.90;99.90;;;;;;5054346;28;20176;-77
2023/06/06 12:17:25;;;;;;;2.30;2.20;;;24.90;99.90;;;;;;5035558;28;20172;-76
2023/06/06 12:19:55;;;;;;;2.30;2.20;;;24.80;99.90;;;;;;5053937;28;20580;-78
2023/06/06 12:22:33;;;;;;;2.40;2.20;;;24.90;99.90;;;;;;5053264;28;20552;-79
2023/06/06 12:25:00;;;;;;;2.10;2.00;;;25.10;99.90;;;;;;5053283;28;20164;-77
2023/06/06 12:27:27;;;;;;;2.22;2.13;;;25.10;99.90;;;;;;5034678;28;20212;-78
2023/06/06 12:29:54;;;;;;;1.90;1.90;;;25.10;99.90;;;;;;5052108;28;20229;-79
2023/06/06 12:32:25;;;;;;;2.28;2.17;;;25.00;99.90;;;;;;5051996;28;20218;-77
2023/06/06 12:35:00;;;;;;;2.40;2.30;;;25.00;99.90;;;;;;5052164;28;20184;-78
2023/06/06 12:37:39;;;;;;;3.65;2.20;;;24.90;99.90;;;;;;5052089;28;20627;-77
2023/06/06 12:40:15;;;;;;;2.60;2.40;;;24.80;99.90;;;;;;5052017;28;20176;-79
2023/06/06 12:42:41;;;;;;;2.83;2.47;;;24.70;99.90;;;;;;5052082;28;20201;-77
2023/06/06 12:45:08;;;;;;;2.30;2.10;;;24.60;99.90;;;;;;5052869;28;20237;-79
2023/06/06 12:47:34;;;;;;;1.80;1.80;;;24.10;99.90;;;;;;5034390;28;20187;-79
2023/06/06 12:50:03;;;;;;;2.38;2.28;;;24.10;99.90;;;;;;5052360;28;20208;-79
2023/06/06 12:52:28;;;;;;;2.10;2.00;;;24.10;99.90;;;;;;5052314;28;20170;-78